METAR Data
IDs: Format: Raw Decoded Include TAF

Data at: 0707 UTC 27 Sep 2020

METAR for:KHCR (Heber City Muni, UT, US)
Text:KHCR 270655Z AUTO 03006KT 10SM CLR 12/03 A3015 RMK AO2
Temperature: 12.0°C ( 54°F)
Dewpoint: 3.0°C ( 37°F) [RH = 54%]
Pressure (altimeter):30.15 inches Hg (1021.1 mb)
Winds:from the NNE (30 degrees) at 7 MPH (6 knots; 3.1 m/s)
Visibility:10 or more sm (16+ km)
Ceiling:at least 12,000 feet AGL
Clouds:sky clear below 12,000 feet AGL
QC Flag:automated observation with no human augmentation